createdAt,value
2018-03-18T00:00:42.621Z,17.85
2018-03-18T00:03:09.952Z,16.55
2018-03-18T00:05:37.472Z,17.15
2018-03-18T00:08:05.023Z,17.27
2018-03-18T00:10:32.545Z,16.48
2018-03-18T00:13:00.101Z,15.52
2018-03-18T00:15:27.626Z,16.77
2018-03-18T00:17:55.224Z,16.00
2018-03-18T00:20:23.730Z,16.58
2018-03-18T00:22:51.277Z,17.42
2018-03-18T00:25:19.362Z,16.90
2018-03-18T00:27:46.884Z,16.55
2018-03-18T00:30:14.440Z,18.80
2018-03-18T00:32:41.956Z,17.37
2018-03-18T00:35:09.472Z,16.45
2018-03-18T00:37:36.989Z,16.95
2018-03-18T00:40:04.522Z,17.75
2018-03-18T00:42:32.042Z,16.33
2018-03-18T00:44:59.594Z,17.62
2018-03-18T00:47:28.095Z,17.35
2018-03-18T00:49:55.611Z,17.17
2018-03-18T00:52:23.140Z,17.60
2018-03-18T00:54:50.648Z,16.87
2018-03-18T00:57:18.169Z,16.70
2018-03-18T00:59:45.733Z,16.50
2018-03-18T01:02:13.256Z,17.23
2018-03-18T01:04:43.446Z,16.30
2018-03-18T01:07:10.995Z,17.37
2018-03-18T01:09:38.516Z,17.35
2018-03-18T01:12:06.033Z,15.30
2018-03-18T01:14:33.552Z,17.80
2018-03-18T01:17:01.070Z,16.90
2018-03-18T01:19:28.595Z,16.60
2018-03-18T01:21:56.125Z,16.45
2018-03-18T01:24:23.641Z,16.65
2018-03-18T01:26:51.176Z,18.37
2018-03-18T01:29:18.737Z,16.42
2018-03-18T01:31:46.065Z,16.60
2018-03-18T01:34:13.591Z,16.27
2018-03-18T01:36:41.128Z,17.08
2018-03-18T01:39:08.648Z,16.65
2018-03-18T01:41:36.164Z,17.62
2018-03-18T01:44:03.685Z,16.05
2018-03-18T01:46:32.204Z,17.30
2018-03-18T01:48:59.725Z,17.02
2018-03-18T01:51:27.260Z,17.45
2018-03-18T01:53:54.776Z,17.35
2018-03-18T01:56:22.318Z,17.35
2018-03-18T01:58:49.858Z,16.98
2018-03-18T02:01:17.376Z,17.10
2018-03-18T02:03:44.894Z,17.73
2018-03-18T02:06:13.418Z,17.75
2018-03-18T02:08:40.940Z,17.20
2018-03-18T02:11:08.468Z,17.00
2018-03-18T02:13:35.984Z,18.37
2018-03-18T02:16:03.265Z,18.67
2018-03-18T02:18:30.785Z,15.93
2018-03-18T02:20:58.307Z,17.42
2018-03-18T02:23:25.821Z,18.67
2018-03-18T02:25:53.343Z,18.02
2018-03-18T02:28:20.856Z,16.50
2018-03-18T02:30:48.376Z,15.50
2018-03-18T02:33:15.902Z,16.58
2018-03-18T02:35:43.425Z,18.45
2018-03-18T02:38:10.948Z,18.73
2018-03-18T02:40:38.484Z,17.27
2018-03-18T02:43:05.978Z,17.35
2018-03-18T02:45:33.490Z,17.20
2018-03-18T02:48:01.047Z,16.17
2018-03-18T02:50:28.590Z,16.25
2018-03-18T02:52:56.115Z,16.60
2018-03-18T02:55:23.634Z,15.30
2018-03-18T02:57:51.224Z,14.90
2018-03-18T03:00:18.770Z,14.73
2018-03-18T03:02:46.301Z,15.38
2018-03-18T03:05:13.828Z,12.82
2018-03-18T03:07:41.346Z,14.60
2018-03-18T03:10:09.452Z,13.60
2018-03-18T03:12:36.978Z,13.88
2018-03-18T03:15:04.510Z,13.05
2018-03-18T03:17:32.054Z,14.45
2018-03-18T03:19:59.596Z,13.23
2018-03-18T03:22:27.125Z,13.98
2018-03-18T03:24:54.646Z,13.40
2018-03-18T03:27:22.167Z,13.95
2018-03-18T03:29:49.704Z,15.02
2018-03-18T03:32:18.344Z,13.32
2018-03-18T03:34:45.889Z,11.65
2018-03-18T03:37:15.355Z,13.40
2018-03-18T03:39:42.885Z,14.15
2018-03-18T03:42:10.421Z,12.50
2018-03-18T03:44:37.946Z,12.75
2018-03-18T03:47:05.460Z,13.00
2018-03-18T03:49:32.986Z,13.45
2018-03-18T03:52:01.104Z,13.57
2018-03-18T03:54:28.632Z,13.30
2018-03-18T03:56:56.165Z,13.18
2018-03-18T03:59:23.687Z,13.52
2018-03-18T04:01:51.236Z,14.85
2018-03-18T04:04:18.775Z,13.10
2018-03-18T04:06:47.301Z,13.45
2018-03-18T04:09:15.879Z,13.82
2018-03-18T04:11:43.398Z,13.57
2018-03-18T04:14:10.929Z,14.02
2018-03-18T04:16:38.469Z,13.75
2018-03-18T04:19:06.000Z,14.02
2018-03-18T04:21:33.536Z,13.75
2018-03-18T04:24:01.074Z,13.88
2018-03-18T04:26:28.592Z,14.93
2018-03-18T04:28:56.141Z,13.50
2018-03-18T04:31:23.670Z,13.85
2018-03-18T04:33:51.244Z,14.77
2018-03-18T04:36:18.937Z,14.07
2018-03-18T04:38:46.455Z,15.52
2018-03-18T04:41:13.981Z,14.18
2018-03-18T04:43:41.505Z,14.05
2018-03-18T04:46:09.023Z,13.70
2018-03-18T04:48:36.555Z,14.60
2018-03-18T04:51:04.087Z,13.95
2018-03-18T04:53:31.605Z,15.00
2018-03-18T04:55:59.122Z,14.77
2018-03-18T04:58:26.640Z,13.88
2018-03-18T05:00:54.162Z,15.05
2018-03-18T05:03:21.684Z,14.75
2018-03-18T05:05:49.212Z,14.35
2018-03-18T05:08:16.733Z,15.10
2018-03-18T05:10:44.276Z,15.05
2018-03-18T05:13:11.809Z,14.68
2018-03-18T05:15:39.332Z,15.50
2018-03-18T05:18:06.849Z,14.77
2018-03-18T05:20:34.389Z,14.60
2018-03-18T05:23:01.926Z,14.60
2018-03-18T05:25:30.457Z,15.63
2018-03-18T05:27:59.934Z,15.68
2018-03-18T05:30:27.466Z,15.20
2018-03-18T05:32:54.797Z,15.45
2018-03-18T05:35:22.323Z,13.65
2018-03-18T05:37:49.660Z,14.60
2018-03-18T05:40:18.183Z,15.13
2018-03-18T05:42:46.706Z,15.45
2018-03-18T05:45:15.249Z,14.50
2018-03-18T05:47:42.794Z,14.70
2018-03-18T05:50:10.305Z,15.00
2018-03-18T05:52:37.820Z,13.75
2018-03-18T05:55:06.499Z,14.63
2018-03-18T05:57:34.021Z,14.30
2018-03-18T06:00:01.549Z,14.90
2018-03-18T06:02:29.072Z,13.00
2018-03-18T06:04:56.590Z,12.55
2018-03-18T06:07:25.131Z,14.07
2018-03-18T06:09:52.708Z,12.48
2018-03-18T06:12:20.580Z,13.70
2018-03-18T06:14:48.117Z,14.13
2018-03-18T06:17:15.668Z,12.93
2018-03-18T06:19:44.193Z,13.45
2018-03-18T06:22:11.717Z,13.52
2018-03-18T06:24:39.253Z,12.70
2018-03-18T06:27:06.776Z,13.43
2018-03-18T06:29:34.304Z,14.32
2018-03-18T06:32:01.827Z,13.95
2018-03-18T06:34:29.350Z,13.65
2018-03-18T06:36:56.865Z,12.60
2018-03-18T06:39:24.401Z,12.95
2018-03-18T06:41:51.949Z,13.50
2018-03-18T06:44:19.472Z,11.85
2018-03-18T06:46:46.990Z,12.02
2018-03-18T06:49:14.530Z,13.40
2018-03-18T06:51:42.052Z,12.55
2018-03-18T06:54:09.568Z,12.70
2018-03-18T06:56:37.083Z,11.98
2018-03-18T06:59:04.601Z,12.52
2018-03-18T07:01:32.123Z,11.65
2018-03-18T07:03:59.650Z,11.98
2018-03-18T07:06:27.169Z,13.38
2018-03-18T07:08:54.712Z,12.80
2018-03-18T07:11:22.239Z,12.40
2018-03-18T07:13:49.780Z,13.27
2018-03-18T07:16:17.314Z,11.48
2018-03-18T07:18:44.863Z,12.32
2018-03-18T07:21:12.205Z,12.70
2018-03-18T07:23:39.729Z,12.43
2018-03-18T07:26:07.254Z,13.00
2018-03-18T07:28:34.769Z,12.35
2018-03-18T07:31:02.285Z,15.18
2018-03-18T07:33:29.812Z,12.37
2018-03-18T07:35:57.321Z,12.10
2018-03-18T07:38:24.845Z,12.45
2018-03-18T07:40:53.365Z,11.27
2018-03-18T07:43:20.885Z,12.80
2018-03-18T07:45:48.394Z,12.37
2018-03-18T07:48:15.722Z,10.63
2018-03-18T07:50:43.226Z,10.38
2018-03-18T07:53:10.728Z,24.80
2018-03-18T07:55:38.248Z,12.00
2018-03-18T07:58:05.760Z,11.38
2018-03-18T08:00:33.268Z,11.40
2018-03-18T08:03:00.780Z,10.90
2018-03-18T08:05:28.310Z,9.50
2018-03-18T08:07:55.825Z,10.02
2018-03-18T08:10:25.271Z,10.55
2018-03-18T08:12:52.782Z,10.10
2018-03-18T08:15:20.296Z,10.75
2018-03-18T08:17:47.905Z,9.88
2018-03-18T08:20:15.494Z,10.68
2018-03-18T08:22:43.001Z,11.25
2018-03-18T08:25:10.511Z,10.65
2018-03-18T08:27:38.027Z,10.48
2018-03-18T08:30:05.545Z,10.93
2018-03-18T08:32:34.085Z,12.05
2018-03-18T08:35:01.602Z,10.68
2018-03-18T08:37:29.120Z,10.25
2018-03-18T08:39:56.630Z,11.52
2018-03-18T08:42:28.883Z,11.57
2018-03-18T08:44:56.396Z,11.05
2018-03-18T08:47:23.900Z,10.68
2018-03-18T08:49:53.107Z,12.00
2018-03-18T08:52:20.671Z,10.68
2018-03-18T08:54:48.328Z,10.77
2018-03-18T08:57:15.836Z,11.80
2018-03-18T08:59:43.157Z,12.43
2018-03-18T09:02:10.664Z,12.68
2018-03-18T09:04:38.165Z,15.60
2018-03-18T09:07:06.713Z,14.40
2018-03-18T09:09:34.232Z,12.45
2018-03-18T09:12:01.762Z,12.13
2018-03-18T09:14:29.281Z,25.45
2018-03-18T09:16:56.785Z,20.20
2018-03-18T09:19:24.411Z,12.00
2018-03-18T09:21:51.917Z,11.88
2018-03-18T09:24:19.430Z,11.57
2018-03-18T09:26:46.937Z,10.32
2018-03-18T09:29:15.444Z,10.25
2018-03-18T09:31:42.953Z,11.75
2018-03-18T09:34:10.461Z,11.32
2018-03-18T09:36:37.972Z,11.20
2018-03-18T09:39:05.229Z,9.90
2018-03-18T09:41:32.736Z,10.13
2018-03-18T09:44:00.241Z,10.02
2018-03-18T09:46:27.766Z,10.25
2018-03-18T09:48:56.096Z,10.98
2018-03-18T09:51:23.605Z,10.90
2018-03-18T09:53:51.118Z,10.63
2018-03-18T09:56:18.633Z,11.18
2018-03-18T09:58:46.144Z,10.13
2018-03-18T10:01:13.666Z,10.23
2018-03-18T10:03:41.186Z,10.35
2018-03-18T10:06:08.699Z,11.45
2018-03-18T10:08:36.052Z,10.65
2018-03-18T10:11:03.577Z,10.85
2018-03-18T10:13:31.088Z,10.60
2018-03-18T10:15:58.594Z,10.10
2018-03-18T10:18:26.104Z,11.35
2018-03-18T10:20:53.621Z,10.27
2018-03-18T10:23:21.141Z,12.35
2018-03-18T10:25:50.569Z,11.18
2018-03-18T10:28:18.084Z,10.30
2018-03-18T10:30:45.604Z,9.57
2018-03-18T10:33:13.101Z,9.80
2018-03-18T10:35:40.639Z,11.38
2018-03-18T10:38:08.166Z,12.55
2018-03-18T10:40:35.674Z,11.70
2018-03-18T10:43:03.182Z,15.73
2018-03-18T10:45:30.688Z,19.87
2018-03-18T10:47:58.209Z,14.15
2018-03-18T10:50:25.720Z,12.02
2018-03-18T10:52:53.230Z,14.10
2018-03-18T10:55:20.751Z,18.25
2018-03-18T10:57:48.257Z,18.12
2018-03-18T11:00:20.664Z,13.85
2018-03-18T11:02:50.471Z,11.52
2018-03-18T11:05:17.993Z,12.02
2018-03-18T11:07:45.580Z,10.93
2018-03-18T11:10:13.093Z,10.85
2018-03-18T11:12:40.604Z,11.88
2018-03-18T11:15:08.117Z,10.63
2018-03-18T11:17:35.826Z,11.02
2018-03-18T11:20:03.336Z,11.15
2018-03-18T11:22:30.665Z,13.68
2018-03-18T11:24:58.190Z,11.15
2018-03-18T11:27:25.701Z,11.00
2018-03-18T11:29:53.226Z,10.98
2018-03-18T11:32:20.950Z,11.32
2018-03-18T11:34:48.463Z,11.60
2018-03-18T11:37:15.976Z,10.68
2018-03-18T11:39:45.452Z,11.00
2018-03-18T11:42:14.006Z,9.55
2018-03-18T11:44:41.537Z,11.35
2018-03-18T11:47:09.072Z,10.90
2018-03-18T11:49:36.583Z,9.45
2018-03-18T11:52:04.275Z,9.15
2018-03-18T11:54:31.601Z,10.00
2018-03-18T11:57:01.032Z,9.90
2018-03-18T11:59:28.543Z,10.00
2018-03-18T12:01:56.050Z,9.95
2018-03-18T12:04:23.585Z,10.07
2018-03-18T12:06:51.084Z,9.73
2018-03-18T12:09:18.929Z,9.48
2018-03-18T12:11:46.533Z,10.10
2018-03-18T12:14:14.042Z,10.50
2018-03-18T12:16:41.599Z,9.45
2018-03-18T12:19:09.122Z,11.18
2018-03-18T12:21:36.657Z,10.27
2018-03-18T12:24:04.184Z,10.70
2018-03-18T12:26:31.804Z,10.43
2018-03-18T12:28:59.324Z,10.18
2018-03-18T12:31:26.835Z,9.07
2018-03-18T12:33:54.395Z,10.45
2018-03-18T12:36:22.053Z,9.60
2018-03-18T12:38:49.641Z,11.12
2018-03-18T12:41:17.152Z,10.57
2018-03-18T12:43:44.658Z,9.98
2018-03-18T12:46:13.156Z,9.68
2018-03-18T12:48:40.698Z,11.65
2018-03-18T12:51:08.221Z,9.52
2018-03-18T12:53:35.739Z,9.82
2018-03-18T12:56:03.249Z,10.00
2018-03-18T12:58:30.757Z,10.07
2018-03-18T13:00:58.272Z,9.13
2018-03-18T13:03:25.804Z,10.10
2018-03-18T13:05:53.327Z,10.68
2018-03-18T13:08:20.846Z,10.13
2018-03-18T13:10:48.357Z,10.10
2018-03-18T13:13:15.862Z,9.73
2018-03-18T13:15:43.380Z,10.13
2018-03-18T13:18:10.888Z,9.95
2018-03-18T13:20:39.413Z,10.88
2018-03-18T13:23:06.916Z,10.45
2018-03-18T13:25:34.419Z,9.25
2018-03-18T13:28:01.946Z,9.45
2018-03-18T13:30:29.460Z,9.70
2018-03-18T13:32:56.973Z,10.68
2018-03-18T13:35:24.484Z,10.70
2018-03-18T13:37:51.994Z,10.30
2018-03-18T13:40:19.513Z,9.82
2018-03-18T13:42:47.039Z,10.70
2018-03-18T13:45:14.569Z,10.40
2018-03-18T13:47:42.068Z,9.50
2018-03-18T13:50:09.581Z,9.88
2018-03-18T13:52:37.102Z,10.45
2018-03-18T13:57:41.412Z,10.40
2018-03-18T14:00:08.984Z,10.82
2018-03-18T14:02:36.650Z,10.18
2018-03-18T14:05:04.177Z,11.45
2018-03-18T14:07:31.729Z,11.12
2018-03-18T14:09:59.241Z,10.70
2018-03-18T14:12:26.753Z,11.10
2018-03-18T14:14:56.236Z,10.38
2018-03-18T14:17:23.749Z,10.02
2018-03-18T14:19:51.254Z,10.60
2018-03-18T14:22:18.785Z,10.98
2018-03-18T14:24:46.324Z,10.75
2018-03-18T14:27:13.820Z,9.77
2018-03-18T14:29:41.331Z,10.60
2018-03-18T14:32:08.837Z,10.27
2018-03-18T14:34:36.340Z,9.15
2018-03-18T14:37:04.848Z,9.43
2018-03-18T14:39:33.356Z,10.10
2018-03-18T14:42:00.902Z,11.15
2018-03-18T14:44:28.411Z,10.25
2018-03-18T14:46:55.921Z,9.50
2018-03-18T14:49:23.459Z,10.32
2018-03-18T14:51:50.976Z,10.93
2018-03-18T14:54:19.514Z,11.93
2018-03-18T14:56:47.025Z,13.13
2018-03-18T14:59:14.533Z,9.98
2018-03-18T15:01:42.063Z,11.05
2018-03-18T15:04:09.582Z,10.50
2018-03-18T15:06:37.101Z,12.60
2018-03-18T15:09:05.367Z,27.23
2018-03-18T15:11:32.887Z,17.23
2018-03-18T15:14:00.405Z,11.85
2018-03-18T15:16:27.917Z,10.25
2018-03-18T15:18:55.434Z,11.18
2018-03-18T15:21:22.951Z,11.35
2018-03-18T15:23:50.478Z,11.30
2018-03-18T15:26:19.925Z,10.75
2018-03-18T15:28:49.373Z,9.13
2018-03-18T15:31:16.925Z,10.30
2018-03-18T15:33:44.433Z,11.90
2018-03-18T15:36:11.951Z,10.40
2018-03-18T15:38:39.470Z,10.48
2018-03-18T15:41:06.981Z,9.48
2018-03-18T15:43:34.498Z,10.18
2018-03-18T15:46:02.013Z,10.73
2018-03-18T15:48:29.523Z,10.80
2018-03-18T15:50:57.028Z,10.23
2018-03-18T15:53:24.541Z,11.25
2018-03-18T15:55:52.058Z,11.75
2018-03-18T15:58:19.590Z,10.93
2018-03-18T16:00:47.109Z,11.07
2018-03-18T16:03:14.621Z,9.88
2018-03-18T16:05:42.133Z,10.32
2018-03-18T16:08:09.649Z,11.23
2018-03-18T16:10:37.181Z,9.90
2018-03-18T16:13:06.609Z,11.77
2018-03-18T16:15:36.110Z,9.88
2018-03-18T16:18:03.668Z,11.27
2018-03-18T16:20:31.334Z,10.75
2018-03-18T16:22:58.862Z,11.07
2018-03-18T16:25:27.372Z,14.87
2018-03-18T16:27:54.893Z,11.75
2018-03-18T16:30:27.935Z,10.65
2018-03-18T16:32:55.621Z,10.68
2018-03-18T16:35:23.141Z,10.80
2018-03-18T16:37:50.657Z,10.27
2018-03-18T16:40:17.983Z,11.20
2018-03-18T16:42:45.488Z,12.20
2018-03-18T16:45:13.000Z,10.48
2018-03-18T16:47:40.504Z,9.52
2018-03-18T16:50:08.096Z,9.65
2018-03-18T16:52:35.751Z,13.48
2018-03-18T16:55:03.270Z,10.15
2018-03-18T16:57:30.805Z,11.07
2018-03-18T16:59:58.322Z,10.95
2018-03-18T17:02:25.847Z,12.73
2018-03-18T17:04:53.365Z,20.33
2018-03-18T17:07:20.873Z,11.27
2018-03-18T17:09:48.381Z,9.82
2018-03-18T17:12:15.894Z,10.05
2018-03-18T17:14:43.407Z,10.60
2018-03-18T17:17:11.097Z,11.32
2018-03-18T17:19:38.616Z,11.00
2018-03-18T17:22:06.131Z,10.40
2018-03-18T17:24:33.634Z,9.43
2018-03-18T17:27:01.164Z,11.55
2018-03-18T17:29:28.674Z,10.88
2018-03-18T17:31:56.189Z,11.02
2018-03-18T17:34:23.735Z,9.88
2018-03-18T17:36:51.405Z,9.07
2018-03-18T17:39:18.940Z,11.45
2018-03-18T17:41:46.453Z,9.05
2018-03-18T17:44:19.458Z,10.15
2018-03-18T17:46:52.749Z,9.98
2018-03-18T17:49:25.773Z,9.73
2018-03-18T17:51:58.872Z,9.35
2018-03-18T17:54:31.957Z,9.90
2018-03-18T17:57:01.428Z,8.77
2018-03-18T17:59:28.929Z,9.15
2018-03-18T18:01:56.421Z,9.13
2018-03-18T18:04:23.950Z,9.85
2018-03-18T18:06:51.456Z,9.25
2018-03-18T18:09:18.957Z,8.50
2018-03-18T18:11:46.470Z,10.40
2018-03-18T18:14:14.009Z,9.73
2018-03-18T18:16:42.662Z,9.75
2018-03-18T18:19:10.172Z,10.07
2018-03-18T18:21:37.678Z,9.65
2018-03-18T18:24:05.192Z,9.80
2018-03-18T18:26:32.693Z,8.50
2018-03-18T18:29:00.198Z,9.30
2018-03-18T18:31:27.702Z,9.38
2018-03-18T18:33:55.022Z,10.13
2018-03-18T18:36:22.529Z,9.52
2018-03-18T18:38:50.045Z,12.52
2018-03-18T18:41:17.558Z,10.95
2018-03-18T18:43:45.093Z,10.10
2018-03-18T18:46:12.631Z,9.93
2018-03-18T18:48:41.322Z,9.65
2018-03-18T18:51:08.659Z,9.77
2018-03-18T18:53:36.161Z,9.85
2018-03-18T18:56:03.676Z,10.80
2018-03-18T18:58:31.182Z,9.65
2018-03-18T19:00:59.697Z,8.30
2018-03-18T19:03:27.200Z,8.90
2018-03-18T19:05:54.709Z,9.68
2018-03-18T19:08:22.241Z,10.20
2018-03-18T19:10:49.748Z,12.37
2018-03-18T19:13:17.241Z,8.32
2018-03-18T19:15:44.754Z,10.00
2018-03-18T19:18:13.273Z,10.02
2018-03-18T19:20:40.778Z,8.75
2018-03-18T19:23:08.300Z,8.60
2018-03-18T19:25:35.801Z,9.10
2018-03-18T19:28:03.297Z,8.00
2018-03-18T19:30:30.816Z,8.43
2018-03-18T19:32:58.322Z,8.60
2018-03-18T19:35:26.824Z,8.40
2018-03-18T19:37:54.322Z,8.20
2018-03-18T19:40:21.822Z,9.38
2018-03-18T19:42:49.336Z,7.97
2018-03-18T19:45:18.798Z,8.27
2018-03-18T19:47:46.318Z,8.20
2018-03-18T19:50:13.838Z,10.32
2018-03-18T19:52:41.361Z,8.27
2018-03-18T19:55:08.881Z,11.52
2018-03-18T19:57:36.388Z,10.20
2018-03-18T20:00:04.894Z,10.48
2018-03-18T20:02:32.394Z,8.95
2018-03-18T20:04:59.913Z,7.78
2018-03-18T20:07:27.259Z,9.27
2018-03-18T20:09:54.796Z,10.80
2018-03-18T20:12:22.309Z,8.85
2018-03-18T20:14:49.817Z,7.95
2018-03-18T20:17:19.248Z,8.35
2018-03-18T20:19:46.794Z,7.47
2018-03-18T20:22:14.292Z,7.93
2018-03-18T20:24:41.792Z,8.50
2018-03-18T20:27:09.100Z,8.93
2018-03-18T20:29:36.801Z,8.30
2018-03-18T20:32:04.304Z,8.57
2018-03-18T20:34:31.806Z,8.55
2018-03-18T20:36:59.315Z,7.62
2018-03-18T20:39:26.816Z,8.43
2018-03-18T20:41:54.337Z,8.48
2018-03-18T20:44:21.853Z,8.90
2018-03-18T20:46:49.368Z,9.55
2018-03-18T20:49:17.874Z,8.85
2018-03-18T20:51:45.468Z,9.50
2018-03-18T20:54:12.969Z,8.57
2018-03-18T20:56:40.468Z,8.23
2018-03-18T20:59:07.970Z,9.27
2018-03-18T21:01:35.480Z,10.77
2018-03-18T21:04:03.996Z,15.20
2018-03-18T21:06:31.521Z,11.70
2018-03-18T21:08:59.022Z,8.45
2018-03-18T21:11:26.538Z,10.80
2018-03-18T21:13:55.019Z,15.93
2018-03-18T21:16:22.544Z,14.45
2018-03-18T21:18:50.051Z,11.05
2018-03-18T21:21:19.517Z,14.00
2018-03-18T21:23:47.038Z,24.02
2018-03-18T21:26:14.548Z,10.50
2018-03-18T21:28:42.090Z,11.68
2018-03-18T21:31:09.618Z,11.70
2018-03-18T21:33:37.119Z,11.65
2018-03-18T21:36:04.660Z,10.77
2018-03-18T21:38:32.179Z,13.20
2018-03-18T21:40:59.675Z,9.85
2018-03-18T21:43:28.176Z,9.75
2018-03-18T21:45:56.664Z,9.88
2018-03-18T21:48:24.163Z,9.23
2018-03-18T21:50:51.684Z,9.80
2018-03-18T21:53:19.221Z,9.80
2018-03-18T21:55:46.716Z,8.93
2018-03-18T21:58:14.235Z,11.05
2018-03-18T22:00:42.771Z,10.40
2018-03-18T22:03:10.269Z,9.88
2018-03-18T22:05:37.779Z,9.25
2018-03-18T22:08:05.282Z,9.60
2018-03-18T22:10:32.798Z,9.75
2018-03-18T22:13:00.336Z,9.02
2018-03-18T22:15:27.852Z,9.45
2018-03-18T22:17:55.373Z,9.70
2018-03-18T22:20:22.874Z,9.20
2018-03-18T22:22:51.370Z,10.10
2018-03-18T22:25:18.868Z,9.43
2018-03-18T22:27:46.385Z,9.88
2018-03-18T22:30:13.894Z,10.07
2018-03-18T22:32:41.404Z,8.95
2018-03-18T22:35:09.925Z,9.95
2018-03-18T22:37:37.432Z,10.45
2018-03-18T22:40:04.948Z,10.13
2018-03-18T22:42:32.450Z,9.48
2018-03-18T22:44:59.967Z,10.20
2018-03-18T22:47:27.480Z,10.35
2018-03-18T22:49:54.984Z,10.57
2018-03-18T22:52:22.484Z,9.45
2018-03-18T22:54:49.992Z,10.50
2018-03-18T22:57:17.501Z,10.10
2018-03-18T22:59:45.042Z,11.50
2018-03-18T23:02:12.540Z,9.32
2018-03-18T23:04:40.045Z,10.70
2018-03-18T23:07:07.749Z,10.95
2018-03-18T23:09:35.252Z,10.25
2018-03-18T23:12:02.755Z,9.57
2018-03-18T23:14:31.272Z,11.02
2018-03-18T23:16:58.776Z,10.10
2018-03-18T23:19:26.401Z,10.18
2018-03-18T23:21:53.930Z,11.10
2018-03-18T23:24:21.453Z,10.82
2018-03-18T23:26:49.141Z,9.82
2018-03-18T23:29:16.664Z,11.38
2018-03-18T23:31:44.182Z,10.60
2018-03-18T23:34:12.693Z,11.70
2018-03-18T23:36:41.249Z,11.80
2018-03-18T23:39:08.762Z,11.70
2018-03-18T23:41:36.085Z,10.93
2018-03-18T23:44:03.608Z,10.73
2018-03-18T23:46:31.139Z,11.35
2018-03-18T23:48:58.666Z,10.18
2018-03-18T23:51:26.173Z,10.63
2018-03-18T23:53:53.712Z,11.98
2018-03-18T23:56:21.226Z,11.65
2018-03-18T23:58:48.742Z,10.40
